Flight Track Log - Related Links

Times and Time Zones

All times are in EDT time to prevent confusion due to time zone crossing. See the SWA34 flight status page for this flight to view local times or setup timezone preferences in your user account.

Time Position Orientation Groundspeed Altitude Reporting Facility
EDT Latitude Longitude Course Direction KTS MPH feet Rate Location/Type
Fri 12:48:42 PM 33.6500 -84.3667 79° East 195 224 3,300  Level Atlanta TRACON
Fri 12:49:42 PM 33.6833 -84.2833 64° Northeast 254 292 6,200 2,613 Climbing Atlanta TRACON
Fri 12:51:25 PM 33.8086 -84.3314 342° North 297 342 10,400 2,356 Climbing Atlanta Center
Fri 12:52:25 PM 33.8125 -84.4364 273° West 269 310 12,600 2,600 Climbing Atlanta Center
Fri 12:53:25 PM 33.8119 -84.5614 270° West 333 383 15,600 2,300 Climbing Atlanta Center
Fri 12:54:25 PM 33.7739 -84.6786 249° West 342 394 17,200 2,100 Climbing Atlanta Center
Fri 12:55:25 PM 33.7378 -84.7808 247° West 354 407 19,800 1,900 Climbing Atlanta Center
Fri 12:56:25 PM 33.7075 -84.9203 255° West 384 442 21,000 1,000 Climbing Atlanta Center
Fri 12:57:25 PM 33.6775 -85.0547 255° West 409 471 21,800 1,700 Climbing Atlanta Center
Fri 12:58:25 PM 33.6492 -85.1892 256° West 415 478 24,400 2,100 Climbing Atlanta Center
Fri 12:59:25 PM 33.6186 -85.3186 254° West 408 470 26,000 2,150 Climbing Atlanta Center
Fri 01:00:25 PM 33.5881 -85.4478 254° West 413 475 28,700 1,950 Climbing Atlanta Center
Fri 01:01:25 PM 33.5614 -85.5694 255° West 397 457 29,900 1,050 Climbing Atlanta Center
Fri 01:02:25 PM 33.5283 -85.6961 253° West 397 457 30,800 800 Climbing Atlanta Center
Fri 01:03:25 PM 33.4994 -85.8250 255° West 404 465 31,500 950 Climbing Atlanta Center
Fri 01:04:25 PM 33.4706 -85.9564 255° West 404 465 32,700 1,200 Climbing Atlanta Center
Fri 01:05:25 PM 33.4392 -86.0875 254° West 411 473 33,900 650 Climbing Atlanta Center
Fri 01:06:25 PM 33.4075 -86.2236 254° West 416 479 34,000 50 Climbing Atlanta Center
Fri 01:07:25 PM 33.3758 -86.3572 254° West 416 479 34,000  Level Atlanta Center
Fri 01:08:25 PM 33.3422 -86.4756 251° West 416 479 34,000  Level Atlanta Center
Fri 01:09:25 PM 33.3103 -86.6114 254° West 416 479 34,000  Level Atlanta Center
Fri 01:10:25 PM 33.2778 -86.7597 255° West 416 479 34,000  Level Atlanta Center
Fri 01:11:25 PM 33.2478 -86.8903 255° West 424 488 34,000  Level Atlanta Center
Fri 01:12:25 PM 33.2008 -87.0203 247° West 417 480 34,000  Level Atlanta Center
Fri 01:13:25 PM 33.1483 -87.1228 239° Southwest 417 480 34,000  Level Atlanta Center
Fri 01:14:25 PM 33.0953 -87.2400 242° Southwest 411 473 34,000  Level Atlanta Center
Fri 01:15:25 PM 33.0419 -87.3619 242° Southwest 411 473 34,000  Level Atlanta Center
Fri 01:16:25 PM 32.9819 -87.4958 242° Southwest 411 473 34,000  Level Atlanta Center
Fri 01:17:25 PM 32.9325 -87.6125 243° Southwest 409 471 34,000  Level Atlanta Center
Fri 01:17:56 PM 32.8997 -87.6778 239° Southwest 412 474 34,000  Level Memphis Center
Fri 01:18:56 PM 32.8478 -87.7856 240° Southwest 412 474 34,000  Level Memphis Center
Fri 01:19:56 PM 32.7958 -87.9056 243° Southwest 407 468 34,000  Level Memphis Center
Fri 01:20:56 PM 32.7439 -88.0233 242° Southwest 402 463 34,000  Level Memphis Center
Fri 01:21:56 PM 32.6875 -88.1383 240° Southwest 402 463 34,000  Level Memphis Center
Fri 01:22:56 PM 32.6375 -88.2556 243° Southwest 402 463 34,000  Level Memphis Center
Fri 01:23:57 PM 32.5850 -88.3700 241° Southwest 402 463 34,000  Level Memphis Center
Fri 01:24:56 PM 32.5306 -88.4847 241° Southwest 402 463 34,000  Level Memphis Center
Fri 01:25:56 PM 32.4736 -88.6039 240° Southwest 402 463 34,000  Level Memphis Center
Fri 01:26:56 PM 32.4211 -88.7183 242° Southwest 402 463 34,000  Level Memphis Center
Fri 01:27:56 PM 32.3703 -88.8347 243° Southwest 402 463 34,000  Level Memphis Center
Fri 01:28:56 PM 32.3364 -88.9608 252° West 396 456 34,000  Level Memphis Center
Fri 01:29:56 PM 32.3000 -89.0817 250° West 396 456 34,000  Level Memphis Center
Fri 01:30:57 PM 32.2658 -89.2050 252° West 396 456 34,000  Level Memphis Center
Fri 01:31:56 PM 32.2272 -89.3283 250° West 396 456 34,000  Level Memphis Center
Fri 01:32:56 PM 32.1925 -89.4492 251° West 402 463 34,000  Level Memphis Center
Fri 01:33:56 PM 32.1581 -89.5697 251° West 402 463 34,000  Level Memphis Center
Fri 01:34:56 PM 32.1211 -89.6925 250° West 402 463 34,000  Level Memphis Center
Fri 01:35:56 PM 32.0861 -89.8106 251° West 395 455 34,000  Level Memphis Center
Fri 01:36:56 PM 32.0511 -89.9308 251° West 395 455 34,000  Level Memphis Center
Fri 01:37:57 PM 32.0161 -90.0461 250° West 390 449 34,000  Level Memphis Center
Fri 01:38:56 PM 31.9808 -90.1689 251° West 395 455 34,000  Level Memphis Center
Fri 01:39:56 PM 31.9453 -90.2889 251° West 395 455 34,000  Level Memphis Center
Fri 01:40:56 PM 31.9078 -90.4039 249° West 388 447 34,000  Level Memphis Center
Fri 01:41:56 PM 31.8722 -90.5236 251° West 393 452 34,000  Level Memphis Center
Fri 01:42:25 PM 31.8594 -90.5728 253° West 387 445 34,000  Level Houston Center
Fri 01:43:27 PM 31.8242 -90.6897 250° West 384 442 34,000  Level Houston Center
Fri 01:44:30 PM 31.7883 -90.8067 250° West 382 440 34,000  Level Houston Center
Fri 01:45:31 PM 31.7517 -90.9236 250° West 381 438 34,000  Level Houston Center
Fri 01:46:33 PM 31.7094 -91.0639 251° West 382 440 34,000  Level Houston Center
Fri 01:47:36 PM 31.6789 -91.1631 250° West 375 432 34,000  Level Houston Center
Fri 01:48:00 PM 31.6575 -91.2295 250° West  Level FlightAware Approximate
Fri 01:48:38 PM 31.6369 -91.3014 250° West 375 432 34,000  Level Houston Center
Fri 01:49:40 PM 31.6006 -91.4164 250° West 376 433 34,000  Level Houston Center
Fri 01:50:42 PM 31.5644 -91.5306 250° West 376 433 34,000  Level Houston Center
Fri 01:51:44 PM 31.5297 -91.6447 250° West 373 429 34,000  Level Houston Center
Fri 01:52:46 PM 31.4942 -91.7583 250° West 372 428 34,000  Level Houston Center
Fri 01:53:48 PM 31.4581 -91.8722 250° West 373 429 34,000  Level Houston Center
Fri 01:54:51 PM 31.4136 -92.0094 249° West 374 430 34,000  Level Houston Center
Fri 01:55:53 PM 31.3739 -92.1233 248° West 379 436 34,000  Level Houston Center
Fri 01:56:55 PM 31.3392 -92.2369 250° West 374 430 34,000  Level Houston Center
Fri 01:57:57 PM 31.3036 -92.3503 250° West 373 429 34,000  Level Houston Center
Fri 01:58:59 PM 31.2658 -92.4633 249° West 373 429 34,000  Level Houston Center
Fri 02:00:01 PM 31.2189 -92.5989 248° West 376 433 34,000  Level Houston Center
Fri 02:01:04 PM 31.1789 -92.7103 247° West 374 430 34,000  Level Houston Center
Fri 02:02:06 PM 31.1378 -92.8208 247° West 373 429 34,000  Level Houston Center
Fri 02:03:08 PM 31.0964 -92.9333 247° West 378 435 34,000  Level Houston Center
Fri 02:04:10 PM 31.0547 -93.0450 246° West 378 435 34,000  Level Houston Center
Fri 02:05:12 PM 31.0131 -93.1564 246° West 376 433 34,000  Level Houston Center
Fri 02:06:14 PM 30.9628 -93.2900 246° West 377 434 34,000  Level Houston Center
Fri 02:07:16 PM 30.9214 -93.4017 247° West 378 435 34,000  Level Houston Center
Fri 02:08:19 PM 30.8797 -93.5133 247° West 379 436 34,000  Level Houston Center
Fri 02:09:21 PM 30.8381 -93.6244 246° West 377 434 34,000  Level Houston Center
Fri 02:10:23 PM 30.7953 -93.7369 246° West 383 441 34,000 -677 Level Houston Center
Fri 02:11:25 PM 30.7444 -93.8694 246° West 378 435 32,600 -1,984 Descending Houston Center
Fri 02:12:27 PM 30.7028 -93.9794 246° West 376 433 29,900 -1,839 Descending Houston Center
Fri 02:13:29 PM 30.6633 -94.0853 247° West 366 421 28,800 -1,306 Descending Houston Center
Fri 02:14:31 PM 30.6231 -94.1892 246° West 357 411 27,200 -2,112 Descending Houston Center
Fri 02:15:34 PM 30.5750 -94.3125 246° West 353 406 24,400 -2,352 Descending Houston Center
Fri 02:16:36 PM 30.5375 -94.4092 246° West 340 391 22,300 -2,132 Descending Houston Center
Fri 02:17:35 PM 30.5017 -94.5017 246° West 320 368 20,100 -1,984 Descending Houston Center
Fri 02:18:40 PM 30.4458 -94.5928 235° Southwest 328 377 18,200 -1,949 Descending Houston Center
Fri 02:19:32 PM 30.3922 -94.6736 232° Southwest 331 381 16,300 -2,158 Descending Houston Center
Fri 02:20:34 PM 30.3394 -94.7578 234° Southwest 324 373 14,100 -1,805 Descending Houston Center
Fri 02:21:35 PM 30.2886 -94.8392 234° Southwest 315 362 12,600 -1,219 Descending Houston Center
Fri 02:22:42 PM 30.2261 -94.9342 233° Southwest 322 371 11,500 -934 Descending Houston Center
Fri 02:23:37 PM 30.1747 -95.0133 233° Southwest 328 377 10,700 -776 Descending Houston Center
Fri 02:24:38 PM 30.1058 -95.0847 222° Southwest 352 405 10,000 -553 Descending Houston Center
Fri 02:24:53 PM 30.0942 -95.0894 199° South 347 399 10,000 -98 Level Houston Center
Fri 02:25:39 PM 30.0169 -95.1222 200° South 327 376 9,900 -97 Descending Houston Center
Fri 02:25:55 PM 30.0072 -95.1253 195° South 333 383 9,900 -484 Level Houston Center
Fri 02:26:41 PM 29.9419 -95.1531 200° South 273 314 9,400 -581 Descending Houston Center
Fri 02:26:57 PM 29.9361 -95.1575 213° Southwest 282 325 9,300 -1,082 Descending Houston Center
Fri 02:27:42 PM 29.8714 -95.1833 199° South 254 292 8,300 -1,355 Descending Houston Center
Fri 02:27:59 PM 29.8550 -95.1917 204° Southwest 261 300 7,900 -1,309 Descending Houston Center
Fri 02:28:37 PM 29.8108 -95.2100 200° South 257 296 7,100 -1,161 Descending Houston Center
Fri 02:29:01 PM 29.7881 -95.2203 201° Southwest 259 298 6,700 -985 Descending Houston Center
Fri 02:29:44 PM 29.7319 -95.2197 180° South 278 320 6,000 -677 Descending Houston Center
Fri 02:30:03 PM 29.7217 -95.2072 133° Southeast 274 315 6,000 -1,418 Level Houston Center
Fri 02:30:39 PM 29.6808 -95.1681 140° Southeast 271 312 4,700 -1,714 Descending Houston Center
Fri 02:31:06 PM 29.6619 -95.1489 139° Southeast 274 315 4,200 -1,433 Descending Houston Center
Fri 02:31:46 PM 29.6119 -95.1500 181° South 244 281 3,100 -1,161 Descending Houston Center
Fri 02:32:08 PM 29.5981 -95.1642 222° Southwest 264 304 3,000 -393 Descending Houston Center
Fri 02:32:47 PM 29.5789 -95.1997 238° Southwest 160 184 2,700 -774 Descending Houston Center
Fri 02:33:10 PM 29.5853 -95.2119 301° West 209 241 2,200 -1,574 Descending Houston Center
Fri 02:33:48 PM 29.6050 -95.2328 317° Northwest 139 160 1,100 -1,355 Descending Houston Center
Fri 02:34:12 PM 29.6131 -95.2428 313° West 161 185 800 -774 Descending Houston Center
Fri 02:34:50 PM 29.6286 -95.2611 314° West 125 144 300 -581 Descending Houston Center
Fri 02:35:14 PM 29.6403 -95.2728 319° Northwest 141 162 200 -250 Descending Houston Center

Login

Don't have an account? Register now (free) for customized features, flight alerts, and more!